Time;durP1;ratioP1;P1;durP2;ratioP2;P2;SDS_P1;SDS_P2;PMS_P1;PMS_P2;Temp;Humidity;BMP_temperature;BMP_pressure;BME280_temperature;BME280_humidity;BME280_pressure;Samples;Min_cycle;Max_cycle;Signal;HPM_P1;HPM_P2
2023/01/13 00:00:18;;;;;;;4.60;1.00;;;9.30;1.00;;;;;;6225273;22;20977;-91
2023/01/13 00:02:52;;;;;;;4.30;1.00;;;9.40;1.00;;;;;;6235575;22;20386;-91
2023/01/13 00:05:19;;;;;;;5.63;1.10;;;9.30;1.00;;;;;;6239272;22;21067;-91
2023/01/13 00:07:48;;;;;;;6.27;1.43;;;9.30;1.00;;;;;;6211081;22;20430;-91
2023/01/13 00:10:37;;;;;;;4.70;1.40;;;9.30;1.00;;;;;;6240535;22;20423;-90
2023/01/13 00:13:25;;;;;;;4.40;1.10;;;9.40;1.00;;;;;;6237677;22;20909;-91
2023/01/13 00:16:12;;;;;;;4.70;1.10;;;9.40;1.00;;;;;;6206548;22;21140;-90
2023/01/13 00:18:49;;;;;;;5.47;1.03;;;9.40;1.00;;;;;;6204451;22;20405;-91
2023/01/13 00:21:25;;;;;;;5.13;1.20;;;9.40;1.00;;;;;;6258545;22;20511;-90
2023/01/13 00:24:01;;;;;;;4.30;1.10;;;9.40;1.00;;;;;;6210480;22;20407;-91
2023/01/13 00:26:32;;;;;;;6.70;1.50;;;9.40;1.00;;;;;;6252591;22;20894;-90
2023/01/13 00:29:08;;;;;;;4.73;1.13;;;9.40;1.00;;;;;;6241093;22;20419;-92
2023/01/13 00:31:47;;;;;;;5.47;1.27;;;9.40;1.00;;;;;;6248351;22;20452;-91
2023/01/13 00:34:22;;;;;;;5.10;1.30;;;9.40;1.00;;;;;;6249041;22;20503;-92
2023/01/13 00:36:50;;;;;;;4.40;1.10;;;9.40;1.00;;;;;;6234797;22;20381;-90
2023/01/13 00:39:27;;;;;;;5.00;1.30;;;9.40;1.00;;;;;;6244157;22;20380;-91
2023/01/13 00:44:47;;;;;;;5.63;1.43;;;9.40;1.00;;;;;;6243640;22;20380;-91
2023/01/13 00:47:20;;;;;;;4.70;1.30;;;9.40;1.00;;;;;;6252061;22;20880;-92
2023/01/13 00:49:49;;;;;;;5.30;1.20;;;9.40;1.00;;;;;;6218017;22;20379;-91
2023/01/13 00:52:39;;;;;;;4.70;1.20;;;9.40;1.00;;;;;;6219709;22;20224;-91
2023/01/13 00:55:19;;;;;;;5.23;1.27;;;9.30;1.00;;;;;;6253779;22;20408;-91
2023/01/13 00:58:02;;;;;;;5.20;1.20;;;9.40;1.00;;;;;;6244312;22;21185;-91
2023/01/13 01:03:19;;;;;;;4.30;0.90;;;9.40;1.00;;;;;;6234744;22;20399;-91
2023/01/13 01:05:48;;;;;;;6.20;1.27;;;9.40;1.00;;;;;;6251461;22;20384;-89
2023/01/13 01:08:42;;;;;;;4.37;0.87;;;9.40;1.00;;;;;;6277261;22;20396;-92
2023/01/13 01:11:17;;;;;;;4.80;1.40;;;9.40;1.00;;;;;;6232813;22;20400;-89
2023/01/13 01:14:10;;;;;;;4.80;1.13;;;9.50;1.00;;;;;;6241131;22;20409;-90
2023/01/13 01:16:41;;;;;;;6.60;1.25;;;9.50;1.00;;;;;;6243794;22;20378;-92
2023/01/13 01:19:10;;;;;;;4.37;0.87;;;9.50;1.00;;;;;;6254058;22;20208;-90
2023/01/13 01:21:40;;;;;;;4.40;0.90;;;9.50;1.00;;;;;;6259021;22;20359;-91
2023/01/13 01:24:08;;;;;;;6.07;0.90;;;9.50;1.00;;;;;;6260659;22;20430;-91
2023/01/13 01:26:40;;;;;;;4.60;1.17;;;9.50;1.00;;;;;;6247335;22;20380;-93
2023/01/13 01:29:18;;;;;;;4.70;1.13;;;9.60;1.00;;;;;;6262414;22;20435;-92
2023/01/13 01:31:50;;;;;;;4.20;0.73;;;9.60;1.00;;;;;;6257372;22;20377;-91
2023/01/13 01:34:19;;;;;;;4.80;1.20;;;9.60;1.00;;;;;;6239999;22;20385;-91
2023/01/13 01:36:50;;;;;;;4.60;1.10;;;9.60;1.00;;;;;;6261418;22;20494;-91
2023/01/13 01:39:24;;;;;;;5.20;1.08;;;9.60;1.00;;;;;;6228904;22;20461;-92
2023/01/13 01:45:14;;;;;;;5.10;1.23;;;9.60;1.00;;;;;;6251612;22;20403;-92
2023/01/13 01:48:00;;;;;;;4.83;0.77;;;9.60;1.00;;;;;;6226446;22;20427;-91
2023/01/13 01:50:39;;;;;;;4.30;0.70;;;9.70;1.00;;;;;;6252531;22;20388;-90
2023/01/13 01:53:11;;;;;;;4.80;1.00;;;9.70;1.00;;;;;;6251045;22;20399;-92
2023/01/13 01:55:50;;;;;;;4.47;0.87;;;9.70;1.00;;;;;;6240004;22;20426;-91
2023/01/13 01:58:32;;;;;;;4.33;0.70;;;9.70;1.00;;;;;;6237012;22;20388;-91
2023/01/13 02:01:00;;;;;;;4.50;0.87;;;9.70;1.00;;;;;;6247106;22;20389;-91
2023/01/13 02:03:30;;;;;;;4.93;0.70;;;9.80;1.00;;;;;;6234903;22;20923;-91
2023/01/13 02:06:18;;;;;;;4.50;0.70;;;9.80;1.00;;;;;;6244335;22;20451;-91
2023/01/13 02:09:02;;;;;;;;;;;;;;;;;;;;;
2023/01/13 02:14:30;;;;;;;4.90;1.23;;;9.90;1.00;;;;;;6142242;23;20384;-92
2023/01/13 02:17:27;;;;;;;4.53;0.70;;;9.90;1.00;;;;;;6135799;23;20376;-91
2023/01/13 02:20:40;;;;;;;4.60;0.80;;;10.00;1.00;;;;;;6117617;23;20939;-91
2023/01/13 02:27:31;;;;;;;4.30;0.80;;;10.20;1.00;;;;;;6160009;22;20416;-91
2023/01/13 02:33:39;;;;;;;4.23;0.60;;;10.20;1.00;;;;;;6254354;22;20412;-91
2023/01/13 02:36:20;;;;;;;5.30;0.83;;;10.20;1.00;;;;;;6232268;22;20846;-91
2023/01/13 02:39:10;;;;;;;6.47;1.10;;;10.20;1.00;;;;;;6249018;22;20375;-91
2023/01/13 02:44:38;;;;;;;4.30;0.60;;;10.20;1.00;;;;;;6246108;22;20424;-92
2023/01/13 02:47:20;;;;;;;4.40;0.87;;;10.20;1.00;;;;;;6229942;22;20422;-91
2023/01/13 02:49:58;;;;;;;4.40;0.67;;;10.20;1.00;;;;;;6194884;22;20413;-90
2023/01/13 02:52:53;;;;;;;;;;;;;;;;;;;;;
2023/01/13 02:55:28;;;;;;;4.80;0.87;;;10.20;1.00;;;;;;6262695;22;50675;-91
2023/01/13 02:58:02;;;;;;;5.60;0.83;;;10.20;1.00;;;;;;6221453;22;20504;-91
2023/01/13 03:00:30;;;;;;;4.40;0.67;;;10.20;1.00;;;;;;6250549;22;20428;-91
2023/01/13 03:03:20;;;;;;;4.47;0.73;;;10.30;1.00;;;;;;6233599;22;20437;-89
2023/01/13 03:06:04;;;;;;;5.17;1.00;;;10.30;1.00;;;;;;6253555;22;20475;-91
2023/01/13 03:08:46;;;;;;;5.37;0.80;;;10.30;1.00;;;;;;6203733;22;20486;-91
2023/01/13 03:11:31;;;;;;;4.60;0.67;;;10.30;1.00;;;;;;6258340;22;20408;-92
2023/01/13 03:14:18;;;;;;;4.70;0.80;;;10.20;1.00;;;;;;6240609;22;20384;-92
2023/01/13 03:17:09;;;;;;;4.40;0.60;;;10.20;1.00;;;;;;6254207;22;20411;-92
2023/01/13 03:20:10;;;;;;;4.80;0.80;;;10.20;1.00;;;;;;6242157;22;20431;-91
2023/01/13 03:22:52;;;;;;;4.80;0.77;;;10.20;1.00;;;;;;6252728;22;20956;-92
2023/01/13 03:25:43;;;;;;;;;;;;;;;;;;;;;
2023/01/13 03:28:28;;;;;;;4.67;0.73;;;10.20;1.00;;;;;;6244406;22;50717;-91
2023/01/13 03:31:09;;;;;;;5.03;0.90;;;10.20;1.00;;;;;;6248170;22;20423;-92
2023/01/13 03:33:49;;;;;;;4.60;0.80;;;10.20;1.00;;;;;;6223172;22;20498;-91
2023/01/13 03:36:29;;;;;;;5.23;0.70;;;10.20;1.00;;;;;;6258962;22;20407;-92
2023/01/13 03:39:12;;;;;;;4.50;0.70;;;10.20;1.00;;;;;;6244323;22;20404;-91
2023/01/13 03:41:51;;;;;;;4.80;0.87;;;10.20;1.00;;;;;;6213968;22;20398;-91
2023/01/13 03:44:32;;;;;;;4.70;0.70;;;10.20;1.00;;;;;;6258577;22;20467;-92
2023/01/13 03:50:11;;;;;;;4.90;1.00;;;10.20;1.00;;;;;;6267914;22;20363;-91
2023/01/13 03:52:51;;;;;;;4.90;0.70;;;10.20;1.00;;;;;;6243860;22;20420;-92
2023/01/13 03:55:37;;;;;;;5.40;1.00;;;10.10;1.00;;;;;;6228323;22;20462;-91
2023/01/13 03:58:30;;;;;;;4.90;0.70;;;10.10;1.00;;;;;;6257053;22;20459;-91
2023/01/13 04:01:29;;;;;;;5.23;0.60;;;10.10;1.00;;;;;;6254176;22;20377;-90
2023/01/13 04:04:03;;;;;;;5.10;0.63;;;10.10;1.00;;;;;;6271637;22;20402;-90
2023/01/13 04:06:43;;;;;;;5.03;0.80;;;10.10;1.00;;;;;;6267710;22;20380;-92
2023/01/13 04:09:26;;;;;;;4.90;0.70;;;10.10;1.00;;;;;;6243658;22;20442;-89
2023/01/13 04:15:08;;;;;;;4.60;0.70;;;10.00;1.00;;;;;;6225567;22;20433;-90
2023/01/13 04:17:55;;;;;;;;;;;;;;;;;;;;;
2023/01/13 04:20:40;;;;;;;4.73;0.73;;;10.10;1.00;;;;;;6233145;22;40101;-89
2023/01/13 04:23:16;;;;;;;5.00;0.93;;;10.10;1.00;;;;;;6274949;22;20376;-91
2023/01/13 04:25:45;;;;;;;4.50;0.60;;;10.10;1.00;;;;;;6247520;22;20455;-92
2023/01/13 04:28:18;;;;;;;4.90;0.97;;;10.10;1.00;;;;;;6256340;22;20391;-92
2023/01/13 04:30:53;;;;;;;5.10;1.00;;;10.10;1.00;;;;;;6263716;22;20418;-91
2023/01/13 04:33:22;;;;;;;4.40;0.60;;;10.10;1.00;;;;;;6267590;22;20379;-91
2023/01/13 04:39:02;;;;;;;4.60;0.70;;;10.10;1.00;;;;;;6230413;22;21306;-91
2023/01/13 04:41:56;;;;;;;4.60;0.67;;;10.10;1.00;;;;;;6209299;22;20512;-91
2023/01/13 04:44:34;;;;;;;4.83;0.70;;;10.00;1.00;;;;;;6243234;22;20368;-91
2023/01/13 04:47:03;;;;;;;4.83;1.00;;;10.00;1.00;;;;;;6252292;22;20423;-90
2023/01/13 04:52:32;;;;;;;4.50;0.73;;;10.00;1.00;;;;;;6242037;22;20434;-91
2023/01/13 04:55:01;;;;;;;4.80;0.77;;;9.90;1.00;;;;;;6193145;22;20376;-92
2023/01/13 04:57:39;;;;;;;5.10;0.90;;;9.90;1.00;;;;;;6249355;22;20433;-90
2023/01/13 06:29:32;;;;;;;5.57;1.37;;;10.40;1.00;;;;;;6100097;22;2196823;-84
2023/01/13 06:32:44;;;;;;;;;;;;;;;;;;;;;
2023/01/13 06:35:36;;;;;;;4.67;0.70;;;10.60;1.00;;;;;;6138929;23;49350;-85
2023/01/13 06:38:34;;;;;;;4.90;0.80;;;10.50;1.00;;;;;;6135570;23;20435;-86
2023/01/13 06:41:17;;;;;;;5.23;0.97;;;10.60;1.00;;;;;;6138786;23;20985;-83
2023/01/13 06:43:55;;;;;;;4.63;0.70;;;10.50;1.00;;;;;;6154023;23;20440;-85
2023/01/13 06:46:36;;;;;;;5.00;0.90;;;10.50;1.00;;;;;;6212447;22;20427;-86
2023/01/13 06:49:08;;;;;;;5.03;0.80;;;10.60;1.00;;;;;;6229996;22;20396;-83
2023/01/13 06:51:38;;;;;;;4.70;0.50;;;10.60;1.00;;;;;;6237159;22;20462;-84
2023/01/13 06:54:05;;;;;;;7.03;3.40;;;10.60;1.00;;;;;;6234895;23;20495;-81
2023/01/13 06:56:34;;;;;;;5.40;0.70;;;10.70;1.00;;;;;;6235451;23;20549;-83
2023/01/13 06:59:03;;;;;;;6.00;1.00;;;10.70;1.00;;;;;;6234711;23;20432;-83
2023/01/13 07:01:34;;;;;;;6.00;1.57;;;10.70;1.00;;;;;;6234902;23;20431;-84
2023/01/13 07:04:01;;;;;;;5.90;0.70;;;10.60;1.00;;;;;;6236095;22;20381;-84
2023/01/13 07:06:30;;;;;;;5.00;0.93;;;10.50;1.00;;;;;;6233882;22;20385;-85
2023/01/13 07:08:58;;;;;;;5.53;1.23;;;10.50;1.00;;;;;;6238561;23;20589;-86
2023/01/13 07:11:28;;;;;;;5.13;0.90;;;10.40;1.00;;;;;;6238671;22;20522;-82
2023/01/13 07:16:44;;;;;;;5.17;1.03;;;10.40;1.00;;;;;;6236445;23;20393;-82
2023/01/13 07:19:22;;;;;;;6.10;1.33;;;10.40;1.00;;;;;;6238869;23;20408;-81
2023/01/13 07:21:57;;;;;;;5.40;1.17;;;10.40;1.00;;;;;;6236367;23;20388;-81
2023/01/13 07:24:34;;;;;;;4.73;0.77;;;10.40;1.00;;;;;;6236738;23;20818;-82
2023/01/13 07:27:03;;;;;;;5.50;1.20;;;10.40;1.00;;;;;;6229412;22;20452;-83
2023/01/13 07:29:32;;;;;;;4.90;0.90;;;10.50;1.00;;;;;;6201357;23;20573;-82
2023/01/13 07:32:00;;;;;;;5.50;0.90;;;10.50;1.00;;;;;;6228914;23;20414;-84
2023/01/13 07:34:36;;;;;;;6.50;1.40;;;10.40;1.00;;;;;;6226841;23;20348;-84
2023/01/13 07:37:07;;;;;;;5.20;1.07;;;10.40;1.00;;;;;;6229252;23;20212;-84
2023/01/13 07:39:37;;;;;;;4.77;0.67;;;10.40;1.00;;;;;;6227648;22;20428;-86
2023/01/13 07:44:55;;;;;;;4.90;0.90;;;10.40;1.00;;;;;;6186540;22;20453;-86
2023/01/13 07:47:27;;;;;;;5.70;1.20;;;10.40;1.00;;;;;;6232688;22;20488;-84
2023/01/13 07:49:57;;;;;;;8.33;1.03;;;10.40;1.00;;;;;;6214109;22;20501;-86
2023/01/13 07:52:26;;;;;;;6.30;1.20;;;10.40;1.00;;;;;;6233180;22;20398;-85
2023/01/13 07:54:56;;;;;;;5.07;1.27;;;10.40;1.00;;;;;;6202614;23;20421;-86
2023/01/13 07:57:26;;;;;;;5.00;0.83;;;10.50;1.00;;;;;;6231460;23;20488;-86
2023/01/13 07:59:56;;;;;;;5.37;0.87;;;10.50;1.00;;;;;;6219722;23;20404;-86
2023/01/13 08:02:29;;;;;;;5.10;0.90;;;10.40;1.00;;;;;;6233072;23;20413;-88
2023/01/13 08:05:04;;;;;;;5.47;0.90;;;10.50;1.00;;;;;;6217425;23;20427;-86
2023/01/13 08:07:54;;;;;;;4.47;0.60;;;10.50;1.00;;;;;;6208542;23;20496;-86
2023/01/13 08:17:25;;;;;;;5.80;0.93;;;10.50;1.00;;;;;;6048075;23;20433;-83
2023/01/13 08:19:52;;;;;;;5.47;1.23;;;10.50;1.00;;;;;;6230764;22;20433;-84
2023/01/13 08:22:19;;;;;;;4.60;0.80;;;10.50;1.00;;;;;;6230247;22;20499;-85
2023/01/13 08:24:48;;;;;;;5.50;0.90;;;10.60;1.00;;;;;;6217677;22;20405;-84
2023/01/13 08:27:15;;;;;;;5.37;0.80;;;10.60;1.00;;;;;;6229648;22;20457;-83
2023/01/13 08:29:42;;;;;;;5.20;1.60;;;10.50;1.00;;;;;;6215814;23;20455;-83
2023/01/13 08:32:09;;;;;;;4.90;1.50;;;10.50;1.00;;;;;;6212273;23;20425;-80
2023/01/13 08:34:45;;;;;;;5.93;1.10;;;10.60;1.00;;;;;;6226818;23;20420;-84
2023/01/13 08:37:15;;;;;;;4.70;0.70;;;10.50;1.00;;;;;;6201855;23;20421;-84
2023/01/13 08:39:47;;;;;;;4.70;0.80;;;10.50;1.00;;;;;;6182559;23;20560;-83
2023/01/13 08:42:17;;;;;;;4.70;0.93;;;10.40;1.00;;;;;;6221322;23;20921;-85
2023/01/13 08:44:44;;;;;;;6.07;1.50;;;10.40;1.00;;;;;;6227671;22;20518;-90
2023/01/13 08:47:11;;;;;;;4.90;1.00;;;10.50;1.00;;;;;;6226795;23;20385;-88
2023/01/13 08:49:37;;;;;;;4.50;1.07;;;10.60;1.00;;;;;;6227369;23;20381;-88
2023/01/13 08:52:04;;;;;;;4.50;0.60;;;10.60;1.00;;;;;;6227480;23;20401;-89
2023/01/13 08:54:31;;;;;;;4.50;0.60;;;10.50;1.00;;;;;;6229895;22;20412;-87
2023/01/13 08:56:58;;;;;;;5.57;0.70;;;10.60;1.00;;;;;;6227441;23;20422;-83
2023/01/13 08:59:26;;;;;;;4.73;0.80;;;10.50;1.00;;;;;;6227691;23;20425;-87
2023/01/13 09:01:53;;;;;;;5.13;0.90;;;10.50;1.00;;;;;;6229206;22;20436;-88
2023/01/13 09:04:23;;;;;;;6.50;0.97;;;10.50;1.00;;;;;;6230008;22;20420;-87
2023/01/13 09:06:50;;;;;;;4.70;0.87;;;10.40;1.00;;;;;;6228094;22;20497;-85
2023/01/13 09:09:18;;;;;;;4.80;0.80;;;10.40;1.00;;;;;;6233506;22;20385;-88
2023/01/13 09:14:35;;;;;;;5.93;1.00;;;10.30;1.00;;;;;;6230930;23;20452;-86
2023/01/13 09:17:02;;;;;;;4.80;0.97;;;10.40;1.00;;;;;;6219791;23;20421;-81
2023/01/13 09:19:30;;;;;;;5.67;1.10;;;10.30;1.00;;;;;;6227436;23;21628;-86
2023/01/13 09:21:57;;;;;;;5.00;0.60;;;10.20;1.00;;;;;;6228719;23;20516;-86
2023/01/13 09:24:25;;;;;;;5.10;0.80;;;10.10;1.00;;;;;;6228738;22;20467;-87
2023/01/13 09:26:53;;;;;;;5.80;1.40;;;10.10;1.00;;;;;;6225706;23;20517;-86
2023/01/13 09:29:20;;;;;;;6.63;1.70;;;10.10;1.00;;;;;;6228579;22;20425;-87
2023/01/13 09:31:48;;;;;;;6.13;1.10;;;10.10;1.00;;;;;;6211967;22;20439;-86
2023/01/13 09:37:07;;;;;;;5.80;1.10;;;10.20;1.00;;;;;;6172088;23;20417;-92
2023/01/13 09:39:58;;;;;;;5.00;1.00;;;10.30;1.00;;;;;;6153637;23;20381;-91
2023/01/13 09:49:09;;;;;;;4.90;1.00;;;10.50;1.00;;;;;;6182144;22;20418;-91
2023/01/13 09:52:26;;;;;;;5.37;0.70;;;10.60;1.00;;;;;;6024323;23;20429;-90
2023/01/13 09:55:20;;;;;;;8.73;1.30;;;10.50;1.00;;;;;;6083817;23;20503;-92
2023/01/13 10:07:47;;;;;;;5.33;0.90;;;10.20;1.00;;;;;;6119916;23;20376;-92
2023/01/13 10:10:37;;;;;;;4.70;0.80;;;10.30;1.00;;;;;;5969400;23;20399;-92
2023/01/13 10:13:19;;;;;;;4.80;1.03;;;10.10;1.00;;;;;;6109774;23;20396;-91
2023/01/13 10:26:06;;;;;;;6.20;1.43;;;9.90;1.00;;;;;;6155313;22;20461;-84
2023/01/13 10:28:35;;;;;;;7.10;1.33;;;10.20;1.00;;;;;;6208301;23;20945;-82
2023/01/13 10:31:12;;;;;;;6.13;1.37;;;10.80;1.00;;;;;;6214358;23;20457;-83
2023/01/13 10:33:39;;;;;;;6.23;1.60;;;11.30;1.00;;;;;;6231266;22;20439;-82
2023/01/13 10:36:14;;;;;;;7.13;2.27;;;11.20;1.00;;;;;;6230075;22;20377;-83
2023/01/13 10:38:44;;;;;;;5.00;1.10;;;11.10;1.00;;;;;;6229879;22;20387;-84
2023/01/13 10:41:23;;;;;;;5.10;1.10;;;10.90;1.00;;;;;;6230023;23;20444;-84
2023/01/13 10:44:00;;;;;;;5.43;1.03;;;10.60;1.00;;;;;;6229023;22;20416;-83
2023/01/13 10:46:28;;;;;;;5.20;1.07;;;10.60;1.00;;;;;;6229632;22;20412;-84
2023/01/13 10:48:56;;;;;;;6.97;0.93;;;10.50;1.00;;;;;;6230951;22;20509;-84
2023/01/13 10:51:25;;;;;;;6.20;1.37;;;10.40;1.00;;;;;;6229989;22;20397;-84
2023/01/13 10:54:00;;;;;;;7.77;1.10;;;10.40;1.00;;;;;;6227449;22;20506;-84
2023/01/13 10:56:31;;;;;;;5.47;1.00;;;10.50;1.00;;;;;;6215793;23;20404;-84
2023/01/13 10:59:17;;;;;;;5.63;1.20;;;10.70;1.00;;;;;;6230573;23;20487;-87
2023/01/13 11:01:59;;;;;;;4.90;0.90;;;10.60;1.00;;;;;;6229557;22;20511;-85
2023/01/13 11:04:32;;;;;;;5.77;1.10;;;10.80;1.00;;;;;;6233396;22;20499;-83
2023/01/13 11:07:00;;;;;;;5.40;1.00;;;10.80;1.00;;;;;;6232754;23;21168;-83
2023/01/13 11:09:30;;;;;;;5.83;1.07;;;10.70;1.00;;;;;;6193265;23;20386;-83
2023/01/13 11:12:01;;;;;;;7.30;1.67;;;10.80;1.00;;;;;;6182437;23;20398;-83
2023/01/13 11:14:38;;;;;;;4.70;0.70;;;10.90;1.00;;;;;;6214166;22;20480;-83
2023/01/13 11:17:32;;;;;;;5.77;1.00;;;11.00;1.00;;;;;;6213428;23;20398;-85
2023/01/13 11:20:06;;;;;;;7.20;0.90;;;10.80;1.00;;;;;;6218830;23;20452;-85
2023/01/13 11:22:39;;;;;;;7.50;1.67;;;10.90;1.00;;;;;;6215750;22;20441;-84
2023/01/13 11:25:12;;;;;;;5.80;0.90;;;11.10;1.00;;;;;;6228994;22;20488;-84
2023/01/13 11:27:47;;;;;;;6.07;1.60;;;11.30;1.00;;;;;;6214054;23;20393;-84
2023/01/13 11:30:28;;;;;;;6.03;0.97;;;12.30;1.00;;;;;;6209040;23;20397;-83
2023/01/13 11:33:22;;;;;;;6.30;1.10;;;13.60;1.00;;;;;;6227910;23;20437;-84
2023/01/13 11:36:01;;;;;;;5.53;0.83;;;14.60;1.00;;;;;;6230098;23;20533;-83
2023/01/13 11:38:33;;;;;;;5.20;1.00;;;15.20;1.00;;;;;;6230575;23;20397;-85
2023/01/13 11:41:08;;;;;;;7.53;1.70;;;15.60;1.00;;;;;;6235949;22;20423;-85
2023/01/13 11:43:45;;;;;;;5.70;1.13;;;16.20;1.00;;;;;;6234128;23;20424;-83
2023/01/13 11:46:12;;;;;;;7.50;1.23;;;16.10;1.00;;;;;;6232092;22;20569;-83
2023/01/13 11:48:45;;;;;;;5.00;1.00;;;15.90;1.00;;;;;;6231654;22;20391;-83
2023/01/13 11:51:26;;;;;;;5.27;1.20;;;15.90;1.00;;;;;;6232163;22;20424;-85
2023/01/13 11:54:23;;;;;;;5.70;1.40;;;15.60;1.00;;;;;;6217879;22;20403;-83
2023/01/13 11:57:15;;;;;;;5.67;1.33;;;15.80;1.00;;;;;;6217410;22;20895;-84
2023/01/13 11:59:57;;;;;;;8.80;1.33;;;16.90;1.00;;;;;;6196391;22;20445;-84
2023/01/13 12:02:47;;;;;;;5.53;0.90;;;17.00;1.00;;;;;;6231544;23;20403;-85
2023/01/13 12:05:24;;;;;;;9.30;2.70;;;16.20;1.00;;;;;;6228683;22;20442;-83
2023/01/13 12:08:03;;;;;;;5.67;1.40;;;16.50;1.00;;;;;;6235600;23;20427;-85
2023/01/13 12:10:53;;;;;;;5.50;1.17;;;17.30;1.00;;;;;;6235387;22;20497;-85
2023/01/13 12:13:29;;;;;;;8.23;1.90;;;17.00;1.00;;;;;;6235893;23;20447;-85
2023/01/13 12:16:14;;;;;;;6.70;1.13;;;16.70;1.00;;;;;;6222504;23;20490;-84
2023/01/13 12:19:16;;;;;;;7.83;1.40;;;17.30;1.00;;;;;;6223570;22;20377;-84
2023/01/13 12:21:56;;;;;;;6.23;1.30;;;17.90;1.00;;;;;;6231210;22;20419;-85
2023/01/13 12:24:28;;;;;;;7.93;1.03;;;17.10;1.00;;;;;;6239141;22;20388;-81
2023/01/13 12:26:58;;;;;;;7.80;1.47;;;16.70;1.00;;;;;;6186024;23;20409;-86
2023/01/13 12:29:32;;;;;;;6.37;1.03;;;16.80;1.00;;;;;;6229781;23;20464;-84
2023/01/13 12:32:04;;;;;;;8.03;1.40;;;16.40;1.00;;;;;;6194573;23;20571;-86
2023/01/13 12:34:51;;;;;;;5.70;1.13;;;16.50;1.00;;;;;;6236007;23;21251;-85
2023/01/13 12:40:24;;;;;;;6.27;1.30;;;17.10;1.00;;;;;;6211261;22;20472;-86
2023/01/13 12:46:22;;;;;;;7.03;1.83;;;17.20;1.00;;;;;;6197502;22;20413;-88
2023/01/13 12:49:20;;;;;;;9.77;1.77;;;17.40;1.00;;;;;;6030946;23;20438;-86
2023/01/13 12:52:09;;;;;;;6.73;1.30;;;16.90;1.00;;;;;;6201048;23;20428;-87
2023/01/13 13:20:02;;;;;;;7.30;1.30;;;12.70;1.00;;;;;;5888221;24;20269;-86
2023/01/13 13:22:51;;;;;;;6.03;1.33;;;13.00;1.00;;;;;;5960460;23;20397;-85
2023/01/13 13:33:13;;;;;;;8.43;1.90;;;12.40;1.00;;;;;;5967881;23;21371;-85
2023/01/13 14:08:21;;;;;;;6.73;1.20;;;11.00;1.00;;;;;;6050934;23;20427;-86
2023/01/13 14:10:58;;;;;;;9.77;2.03;;;10.90;1.00;;;;;;6129911;23;20481;-86
2023/01/13 14:13:41;;;;;;;9.50;1.83;;;10.80;1.00;;;;;;6141479;23;20458;-85
2023/01/13 14:19:43;;;;;;;8.00;1.63;;;10.70;1.00;;;;;;6057187;23;20428;-86
2023/01/13 14:22:17;;;;;;;11.63;2.00;;;10.60;1.00;;;;;;6209207;23;20424;-86
2023/01/13 14:24:54;;;;;;;10.03;2.63;;;10.60;1.00;;;;;;6236281;22;20510;-86
2023/01/13 14:27:46;;;;;;;7.47;1.67;;;10.70;1.00;;;;;;6210043;22;20430;-85
2023/01/13 14:30:48;;;;;;;6.47;2.07;;;10.70;1.00;;;;;;6211938;23;20493;-84
2023/01/13 14:33:32;;;;;;;6.97;1.70;;;10.70;1.00;;;;;;6181321;23;20496;-85
2023/01/13 14:37:16;;;;;;;;;;;;;;;;;;;;;
2023/01/13 14:44:03;;;;;;;;;;;;;;;;;;;;;
2023/01/13 14:46:48;;;;;;;8.33;1.50;;;10.60;1.00;;;;;;5983045;23;50789;-84
2023/01/13 14:53:04;;;;;;;;;;;;;;;;;;;;;
2023/01/13 14:56:06;;;;;;;;;;;;;;;;;;;;;
2023/01/13 15:14:22;;;;;;;6.60;1.40;;;10.50;1.00;;;;;;6123226;23;21186;-86
2023/01/13 15:26:06;;;;;;;;;;;;;;;;;;;;;
2023/01/13 16:06:56;;;;;;;8.27;1.70;;;9.60;1.00;;;;;;6204186;22;20380;-89
2023/01/13 16:47:12;;;;;;;;;;;;;;;;;;;;;
2023/01/13 20:25:21;;;;;;;7.13;1.90;;;8.80;1.00;;;;;;5584934;22;15963112;-85
2023/01/13 20:28:22;;;;;;;;;;;;;;;;;;;;;
2023/01/13 20:52:09;;;;;;;;;;;;;;;;;;;;;
2023/01/13 20:58:48;;;;;;;;;;;;;;;;;;;;;
2023/01/13 21:02:01;;;;;;;11.07;1.80;;;8.90;1.00;;;;;;4949420;28;50392;-90
2023/01/13 21:05:08;;;;;;;;;;;;;;;;;;;;;
2023/01/13 21:08:45;;;;;;;;;;;;;;;;;;;;;
2023/01/13 22:05:34;;;;;;;10.10;2.92;;;8.60;1.00;;;;;;4885563;29;20336;-88
2023/01/13 22:25:07;;;;;;;7.47;2.07;;;8.50;1.00;;;;;;6247707;22;2150018;-84
2023/01/13 22:35:55;;;;;;;;;;;;;;;;;;;;;
2023/01/13 22:41:35;;;;;;;7.10;2.20;;;8.50;1.00;;;;;;5894600;23;21047;-84
2023/01/13 22:47:14;;;;;;;6.47;1.90;;;8.30;1.00;;;;;;6088346;23;20217;-84
2023/01/13 22:49:46;;;;;;;6.93;1.88;;;8.20;1.00;;;;;;6123976;23;20445;-84
2023/01/13 23:04:09;;;;;;;7.27;1.90;;;8.20;1.00;;;;;;5950840;23;20230;-85
2023/01/13 23:06:37;;;;;;;8.52;2.17;;;8.20;1.00;;;;;;6134876;22;20210;-85
2023/01/13 23:16:26;;;;;;;7.65;1.92;;;8.10;1.00;;;;;;6058017;23;20225;-84
2023/01/13 23:19:25;;;;;;;;;;;;;;;;;;;;;
2023/01/13 23:22:35;;;;;;;;;;;;;;;;;;;;;
2023/01/13 23:25:44;;;;;;;;;;;;;;;;;;;;;
2023/01/13 23:43:10;;;;;;;7.45;2.05;;;7.70;1.00;;;;;;5133698;27;20929;-88
2023/01/13 23:45:39;;;;;;;8.65;2.50;;;7.70;1.00;;;;;;5119414;27;20968;-90
2023/01/13 23:48:13;;;;;;;10.93;2.20;;;7.70;1.00;;;;;;5115479;27;20233;-90
2023/01/13 23:51:02;;;;;;;10.38;2.22;;;7.70;1.00;;;;;;5125892;27;20235;-90
2023/01/13 23:53:35;;;;;;;10.13;2.42;;;7.80;1.00;;;;;;5095343;27;21077;-89
2023/01/13 23:59:32;;;;;;;;;;;;;;;;;;;;;
